Time;durP1;ratioP1;P1;durP2;ratioP2;P2;SDS_P1;SDS_P2;PMS_P1;PMS_P2;Temp;Humidity;BMP_temperature;BMP_pressure;BME280_temperature;BME280_humidity;BME280_pressure;Samples;Min_cycle;Max_cycle;Signal;HPM_P1;HPM_P2
2021/04/06 00:00:43;;;;;;;0.00;0.00;;;1.30;99.90;;;;;;4994723;28;20552;-80
2021/04/06 00:03:13;;;;;;;0.10;0.10;;;1.30;99.90;;;;;;5006024;28;20331;-77
2021/04/06 00:05:40;;;;;;;2.20;0.93;;;1.30;99.90;;;;;;4995274;28;20244;-79
2021/04/06 00:08:07;;;;;;;0.10;0.10;;;1.20;99.90;;;;;;4995054;28;20690;-80
2021/04/06 00:10:39;;;;;;;0.10;0.10;;;1.20;99.90;;;;;;4995010;28;20220;-78
2021/04/06 00:13:05;;;;;;;0.00;0.00;;;1.30;99.90;;;;;;4995057;28;20853;-80
2021/04/06 00:15:31;;;;;;;0.10;0.10;;;1.30;99.90;;;;;;4995066;28;20187;-78
2021/04/06 00:18:00;;;;;;;0.10;0.10;;;1.30;99.90;;;;;;5011916;28;20204;-79
2021/04/06 00:20:28;;;;;;;0.10;0.10;;;1.30;99.90;;;;;;4995367;28;20236;-78
2021/04/06 00:22:55;;;;;;;0.10;0.10;;;1.40;99.90;;;;;;4994995;28;20196;-78
2021/04/06 00:25:27;;;;;;;0.00;0.00;;;1.40;99.90;;;;;;5011198;28;20199;-78
2021/04/06 00:27:53;;;;;;;1.80;0.63;;;1.40;99.90;;;;;;4993993;28;20198;-79
2021/04/06 00:30:30;;;;;;;0.20;0.20;;;1.40;99.90;;;;;;5027569;28;20202;-79
2021/04/06 00:33:22;;;;;;;0.10;0.10;;;1.50;99.90;;;;;;4994483;28;20227;-79
2021/04/06 00:35:54;;;;;;;0.00;0.00;;;1.70;99.90;;;;;;4988175;28;20216;-79
2021/04/06 00:38:21;;;;;;;0.20;0.20;;;1.90;99.90;;;;;;4992942;28;20201;-78
2021/04/06 00:40:50;;;;;;;1.27;0.20;;;1.90;99.90;;;;;;4985195;28;20236;-79
2021/04/06 00:43:18;;;;;;;0.20;0.20;;;1.90;99.90;;;;;;4993796;28;20193;-79
2021/04/06 00:45:46;;;;;;;4.80;0.20;;;1.90;99.90;;;;;;5027529;28;20193;-78
2021/04/06 00:48:19;;;;;;;0.30;0.20;;;1.90;99.90;;;;;;5012142;28;20238;-80
2021/04/06 00:51:05;;;;;;;0.10;0.10;;;1.90;99.90;;;;;;5012263;28;20215;-80
2021/04/06 00:53:52;;;;;;;0.10;0.10;;;1.80;99.90;;;;;;5011778;28;20188;-79
2021/04/06 00:56:21;;;;;;;0.10;0.10;;;1.70;99.90;;;;;;5012020;28;20196;-78
2021/04/06 00:58:51;;;;;;;0.20;0.20;;;1.70;99.90;;;;;;4994530;28;20214;-80
2021/04/06 01:01:32;;;;;;;0.10;0.10;;;1.80;99.90;;;;;;4994104;28;20201;-79
2021/04/06 01:03:58;;;;;;;0.87;0.87;;;1.70;99.90;;;;;;4994180;28;20237;-80
2021/04/06 01:06:24;;;;;;;0.03;0.03;;;1.70;99.90;;;;;;4993624;28;20186;-80
2021/04/06 01:08:52;;;;;;;0.07;0.07;;;1.70;99.90;;;;;;5012077;28;20178;-80
2021/04/06 01:11:18;;;;;;;0.00;0.00;;;1.60;99.90;;;;;;5011567;28;20729;-78
2021/04/06 01:13:45;;;;;;;0.10;0.10;;;1.60;99.90;;;;;;5003753;28;20178;-79
2021/04/06 01:16:10;;;;;;;0.10;0.10;;;1.60;99.90;;;;;;5011353;28;20870;-78
2021/04/06 01:18:36;;;;;;;0.10;0.10;;;1.70;99.90;;;;;;4994151;28;20279;-79
2021/04/06 01:21:11;;;;;;;0.10;0.10;;;1.70;99.90;;;;;;4993753;28;20207;-80
2021/04/06 01:23:38;;;;;;;0.40;0.40;;;1.70;99.90;;;;;;4993929;28;20658;-79
2021/04/06 01:26:10;;;;;;;0.10;0.10;;;1.70;99.90;;;;;;5011453;28;20170;-79
2021/04/06 01:28:36;;;;;;;2.33;0.43;;;1.80;99.90;;;;;;4993739;28;20189;-80
2021/04/06 01:31:04;;;;;;;0.10;0.10;;;1.80;99.90;;;;;;4993368;28;20205;-79
2021/04/06 01:33:31;;;;;;;0.10;0.10;;;1.90;99.90;;;;;;4992493;28;20634;-79
2021/04/06 01:35:59;;;;;;;0.10;0.10;;;1.90;99.90;;;;;;5011532;28;20264;-80
2021/04/06 01:38:27;;;;;;;0.00;0.00;;;1.80;99.90;;;;;;4992517;28;20198;-79
2021/04/06 01:40:56;;;;;;;0.30;0.30;;;1.90;99.90;;;;;;5019430;28;20212;-79
2021/04/06 01:43:25;;;;;;;0.10;0.10;;;1.90;99.90;;;;;;5009283;28;20193;-80
2021/04/06 01:45:56;;;;;;;0.23;0.23;;;1.80;99.90;;;;;;4992518;28;20269;-78
2021/04/06 01:48:21;;;;;;;0.13;0.13;;;1.70;99.90;;;;;;4993468;28;20188;-79
2021/04/06 01:50:50;;;;;;;0.23;0.23;;;1.70;99.90;;;;;;4992564;28;20577;-79
2021/04/06 01:53:17;;;;;;;0.10;0.10;;;1.60;99.90;;;;;;4993443;28;20595;-78
2021/04/06 01:55:53;;;;;;;0.10;0.10;;;1.60;99.90;;;;;;5006533;28;21013;-78
2021/04/06 01:58:22;;;;;;;0.10;0.10;;;1.60;99.90;;;;;;4993235;28;20192;-78
2021/04/06 02:00:56;;;;;;;0.10;0.10;;;1.50;99.90;;;;;;5017697;28;20294;-79
2021/04/06 02:03:26;;;;;;;0.10;0.10;;;1.60;99.90;;;;;;4992991;28;20246;-79
2021/04/06 02:05:52;;;;;;;0.10;0.10;;;1.50;99.90;;;;;;5011164;28;20743;-79
2021/04/06 02:08:19;;;;;;;0.10;0.10;;;1.60;99.90;;;;;;4992912;28;20280;-79
2021/04/06 02:10:45;;;;;;;0.00;0.00;;;1.70;99.90;;;;;;5010948;28;20241;-80
2021/04/06 02:13:12;;;;;;;0.00;0.00;;;1.70;99.90;;;;;;4992958;28;20212;-80
2021/04/06 02:15:54;;;;;;;0.33;0.33;;;1.70;99.90;;;;;;5009589;28;20192;-77
2021/04/06 02:18:25;;;;;;;0.10;0.10;;;1.80;99.90;;;;;;4992699;28;20178;-79
2021/04/06 02:20:52;;;;;;;0.40;0.40;;;1.80;99.90;;;;;;4992651;28;20273;-80
2021/04/06 02:23:18;;;;;;;0.10;0.10;;;1.90;99.90;;;;;;4993504;28;20193;-79
2021/04/06 02:25:50;;;;;;;0.10;0.10;;;1.90;99.90;;;;;;5010299;28;20188;-79
2021/04/06 02:28:17;;;;;;;0.10;0.10;;;2.00;99.90;;;;;;5009592;28;20189;-80
2021/04/06 02:31:00;;;;;;;0.10;0.10;;;2.00;99.90;;;;;;5010337;28;20216;-79
2021/04/06 02:33:37;;;;;;;4.93;0.20;;;1.90;99.90;;;;;;4987938;28;20210;-79
2021/04/06 02:36:06;;;;;;;0.10;0.10;;;1.90;99.90;;;;;;4992880;28;20640;-79
2021/04/06 02:38:40;;;;;;;0.10;0.10;;;1.90;99.90;;;;;;5010593;28;20195;-78
2021/04/06 02:41:09;;;;;;;0.10;0.10;;;1.90;99.90;;;;;;5010562;28;20303;-79
2021/04/06 02:43:54;;;;;;;0.60;0.60;;;1.80;99.90;;;;;;4994246;28;20184;-79
2021/04/06 02:46:24;;;;;;;0.10;0.10;;;1.80;99.90;;;;;;5005971;28;20188;-79
2021/04/06 02:48:50;;;;;;;0.20;0.20;;;1.90;99.90;;;;;;5025676;28;20189;-78
2021/04/06 02:51:17;;;;;;;0.10;0.10;;;2.00;99.90;;;;;;5023790;28;20216;-79
2021/04/06 02:53:43;;;;;;;0.00;0.00;;;2.00;99.90;;;;;;4996330;28;20184;-79
2021/04/06 02:56:08;;;;;;;0.20;0.20;;;2.10;99.90;;;;;;5013145;28;20183;-79
2021/04/06 02:58:38;;;;;;;0.10;0.10;;;2.10;99.90;;;;;;4999363;28;20225;-79
2021/04/06 03:01:14;;;;;;;0.10;0.10;;;2.10;99.90;;;;;;5019933;28;20244;-81
2021/04/06 03:03:40;;;;;;;0.10;0.10;;;2.00;99.90;;;;;;4997215;28;20204;-82
2021/04/06 03:06:11;;;;;;;0.00;0.00;;;2.00;99.90;;;;;;5003292;28;20192;-78
2021/04/06 03:08:39;;;;;;;0.00;0.00;;;1.90;99.90;;;;;;5009189;28;20657;-79
2021/04/06 03:11:08;;;;;;;0.10;0.10;;;2.00;99.90;;;;;;5011270;28;20254;-79
2021/04/06 03:13:39;;;;;;;0.20;0.20;;;2.00;99.90;;;;;;4986574;28;20660;-79
2021/04/06 03:16:07;;;;;;;0.73;0.70;;;2.10;99.90;;;;;;4983406;28;20251;-79
2021/04/06 03:18:39;;;;;;;0.00;0.00;;;2.10;99.90;;;;;;4990244;28;20544;-79
2021/04/06 03:21:07;;;;;;;0.10;0.10;;;2.10;99.90;;;;;;5009376;28;20199;-79
2021/04/06 03:23:34;;;;;;;0.00;0.00;;;2.10;99.90;;;;;;5002262;28;20197;-79
2021/04/06 03:26:01;;;;;;;0.20;0.20;;;2.10;99.90;;;;;;4994779;28;20182;-79
2021/04/06 03:28:35;;;;;;;0.10;0.10;;;2.20;99.90;;;;;;5012113;28;20208;-79
2021/04/06 03:31:18;;;;;;;0.83;0.77;;;2.10;99.90;;;;;;5007744;28;20286;-78
2021/04/06 03:33:46;;;;;;;0.10;0.10;;;2.10;99.90;;;;;;4992041;28;20190;-79
2021/04/06 03:36:23;;;;;;;0.10;0.10;;;2.00;99.90;;;;;;5027605;28;20249;-79
2021/04/06 03:38:50;;;;;;;0.10;0.10;;;2.00;99.90;;;;;;4994236;28;20205;-78
2021/04/06 03:41:18;;;;;;;0.20;0.20;;;2.00;99.90;;;;;;4998299;28;20214;-79
2021/04/06 03:43:44;;;;;;;0.10;0.10;;;2.00;99.90;;;;;;4994626;28;20188;-78
2021/04/06 03:46:10;;;;;;;0.07;0.07;;;2.00;99.90;;;;;;4995485;28;20209;-79
2021/04/06 03:48:38;;;;;;;0.10;0.10;;;2.00;99.90;;;;;;4995282;28;20208;-79
2021/04/06 03:51:25;;;;;;;0.10;0.10;;;2.00;99.90;;;;;;4994244;28;20621;-79
2021/04/06 03:53:51;;;;;;;0.20;0.20;;;2.20;99.90;;;;;;4984790;28;20181;-79
2021/04/06 03:56:17;;;;;;;0.07;0.07;;;2.30;99.90;;;;;;4994074;28;20178;-79
2021/04/06 03:58:53;;;;;;;0.10;0.10;;;2.20;99.90;;;;;;4996221;28;20560;-79
2021/04/06 04:01:19;;;;;;;0.37;0.27;;;2.00;99.90;;;;;;5006026;28;20200;-79
2021/04/06 04:03:45;;;;;;;0.10;0.10;;;1.90;99.90;;;;;;4994806;28;20185;-79
2021/04/06 04:06:21;;;;;;;0.07;0.07;;;2.00;99.90;;;;;;4993353;28;20186;-77
2021/04/06 04:08:46;;;;;;;0.10;0.10;;;2.00;99.90;;;;;;4993709;28;20684;-78
2021/04/06 04:11:12;;;;;;;0.20;0.20;;;2.00;99.90;;;;;;4992486;28;20199;-79
2021/04/06 04:13:37;;;;;;;0.10;0.10;;;2.00;99.90;;;;;;4994022;28;20189;-79
2021/04/06 04:16:03;;;;;;;0.20;0.20;;;1.90;99.90;;;;;;5026611;28;20205;-79
2021/04/06 04:18:29;;;;;;;0.10;0.10;;;1.90;99.90;;;;;;4993653;28;20184;-78
2021/04/06 04:20:55;;;;;;;0.10;0.10;;;1.90;99.90;;;;;;5000591;28;20661;-79
2021/04/06 04:23:21;;;;;;;0.10;0.10;;;1.90;99.90;;;;;;5011510;28;20650;-79
2021/04/06 04:25:46;;;;;;;0.10;0.10;;;1.90;99.90;;;;;;4991971;28;20271;-77
2021/04/06 04:28:12;;;;;;;0.10;0.10;;;1.90;99.90;;;;;;4983791;28;20192;-79
2021/04/06 04:30:38;;;;;;;0.10;0.10;;;1.80;99.90;;;;;;4984843;28;20219;-79
2021/04/06 04:33:06;;;;;;;0.10;0.10;;;1.80;99.90;;;;;;5027271;28;20211;-77
2021/04/06 04:35:32;;;;;;;0.10;0.10;;;1.80;99.90;;;;;;4991589;28;20242;-79
2021/04/06 04:37:58;;;;;;;0.10;0.10;;;1.90;99.90;;;;;;4984675;28;20214;-79
2021/04/06 04:40:24;;;;;;;0.10;0.10;;;1.70;99.90;;;;;;5009875;28;20193;-79
2021/04/06 04:42:52;;;;;;;0.10;0.10;;;1.70;99.90;;;;;;4994457;28;20333;-79
2021/04/06 04:45:18;;;;;;;0.10;0.10;;;1.70;99.90;;;;;;5009803;28;20205;-78
2021/04/06 04:47:44;;;;;;;0.10;0.10;;;1.80;99.90;;;;;;5020907;28;20223;-79
2021/04/06 04:50:10;;;;;;;0.07;0.07;;;1.70;99.90;;;;;;4993451;28;20264;-76
2021/04/06 04:52:35;;;;;;;0.10;0.10;;;1.80;99.90;;;;;;4991198;28;20214;-78
2021/04/06 04:55:01;;;;;;;0.40;0.40;;;1.80;99.90;;;;;;5009979;28;20177;-76
2021/04/06 04:57:27;;;;;;;0.10;0.10;;;1.90;99.90;;;;;;5009014;28;20264;-78
2021/04/06 04:59:52;;;;;;;0.20;0.13;;;1.90;99.90;;;;;;4989936;28;20191;-79
2021/04/06 05:02:18;;;;;;;0.00;0.00;;;2.00;99.90;;;;;;4992754;28;20240;-78
2021/04/06 05:04:43;;;;;;;0.10;0.10;;;2.10;99.90;;;;;;4992867;28;20223;-78
2021/04/06 05:07:09;;;;;;;0.10;0.10;;;2.00;99.90;;;;;;4991778;28;20281;-77
2021/04/06 05:09:35;;;;;;;0.10;0.10;;;2.10;99.90;;;;;;5010389;28;20196;-79
2021/04/06 05:12:00;;;;;;;0.10;0.10;;;2.20;99.90;;;;;;4989651;28;20224;-80
2021/04/06 05:14:26;;;;;;;0.10;0.10;;;2.30;99.90;;;;;;5009854;28;20188;-78
2021/04/06 05:16:52;;;;;;;0.00;0.00;;;2.30;99.90;;;;;;4989716;28;20180;-79
2021/04/06 05:19:17;;;;;;;0.00;0.00;;;2.30;99.90;;;;;;4992315;28;20187;-81
2021/04/06 05:21:43;;;;;;;0.10;0.10;;;2.30;99.90;;;;;;5009783;28;20252;-81
2021/04/06 05:24:09;;;;;;;0.10;0.10;;;2.40;99.90;;;;;;5010437;28;20195;-82
2021/04/06 05:26:35;;;;;;;0.40;0.40;;;2.30;99.90;;;;;;5010247;28;20906;-82
2021/04/06 05:29:00;;;;;;;0.00;0.00;;;2.40;99.90;;;;;;4990671;28;20192;-79
2021/04/06 05:31:26;;;;;;;0.10;0.10;;;2.40;99.90;;;;;;5009540;28;20218;-79
2021/04/06 05:33:55;;;;;;;0.10;0.10;;;2.40;99.90;;;;;;4992629;28;20217;-79
2021/04/06 05:36:20;;;;;;;0.10;0.10;;;2.50;99.90;;;;;;5010208;28;20182;-79
2021/04/06 05:38:46;;;;;;;0.10;0.10;;;2.50;99.90;;;;;;5012225;28;20691;-79
2021/04/06 05:41:12;;;;;;;0.50;0.50;;;2.50;99.90;;;;;;4994787;28;20219;-77
2021/04/06 05:43:40;;;;;;;0.10;0.10;;;2.50;99.90;;;;;;5010835;28;20198;-79
2021/04/06 05:46:06;;;;;;;0.30;0.30;;;2.50;99.90;;;;;;5009845;28;20192;-78
2021/04/06 05:48:34;;;;;;;0.10;0.10;;;2.50;99.90;;;;;;4991334;28;20193;-77
2021/04/06 05:51:00;;;;;;;0.20;0.13;;;2.60;99.90;;;;;;5010166;28;20194;-77
2021/04/06 05:53:26;;;;;;;0.00;0.00;;;2.70;99.90;;;;;;4992652;28;20224;-77
2021/04/06 05:55:52;;;;;;;0.00;0.00;;;2.80;99.90;;;;;;4991246;28;20193;-77
2021/04/06 05:58:17;;;;;;;0.20;0.20;;;2.80;99.90;;;;;;5008993;28;20694;-79
2021/04/06 06:00:43;;;;;;;0.20;0.20;;;2.80;99.90;;;;;;4992307;28;20675;-79
2021/04/06 06:03:10;;;;;;;0.70;0.70;;;2.80;99.90;;;;;;4994585;28;20196;-79
2021/04/06 06:05:37;;;;;;;0.40;0.40;;;2.90;99.90;;;;;;4991306;28;20198;-78
2021/04/06 06:08:08;;;;;;;0.10;0.10;;;2.90;99.90;;;;;;5008451;28;20191;-79
2021/04/06 06:10:35;;;;;;;0.10;0.10;;;2.90;99.90;;;;;;4992295;28;20220;-78
2021/04/06 06:13:23;;;;;;;0.10;0.10;;;3.00;99.90;;;;;;5010315;28;20224;-77
2021/04/06 06:16:10;;;;;;;0.10;0.10;;;3.10;99.90;;;;;;4992401;28;20194;-78
2021/04/06 06:18:55;;;;;;;0.10;0.10;;;3.30;99.90;;;;;;5009313;28;21055;-79
2021/04/06 06:21:40;;;;;;;0.10;0.10;;;3.30;99.90;;;;;;4992329;28;20203;-78
2021/04/06 06:24:06;;;;;;;0.30;0.30;;;3.50;99.90;;;;;;5009491;28;20190;-77
2021/04/06 06:26:32;;;;;;;0.93;0.30;;;3.50;99.90;;;;;;4995877;28;20191;-77
2021/04/06 06:29:20;;;;;;;0.77;0.20;;;3.50;99.90;;;;;;5012866;28;20213;-78
2021/04/06 06:31:52;;;;;;;0.20;0.20;;;3.50;99.90;;;;;;4995628;28;20256;-78
2021/04/06 06:34:35;;;;;;;0.10;0.10;;;3.40;99.90;;;;;;5029280;28;20268;-79
2021/04/06 06:37:26;;;;;;;0.03;0.03;;;3.40;99.90;;;;;;4995113;28;20192;-79
2021/04/06 06:40:03;;;;;;;0.10;0.10;;;3.50;99.90;;;;;;4994822;28;20572;-78
2021/04/06 06:42:39;;;;;;;0.83;0.40;;;3.60;99.90;;;;;;5013553;28;20212;-79
2021/04/06 06:45:22;;;;;;;0.10;0.10;;;3.80;99.90;;;;;;5011633;28;20220;-79
2021/04/06 06:47:57;;;;;;;0.03;0.03;;;3.70;99.90;;;;;;5009308;28;20187;-82
2021/04/06 06:50:24;;;;;;;0.10;0.10;;;3.80;99.90;;;;;;4995033;28;20299;-82
2021/04/06 06:52:54;;;;;;;0.10;0.10;;;3.90;99.90;;;;;;5023750;28;20295;-77
2021/04/06 06:55:23;;;;;;;0.10;0.10;;;4.10;99.90;;;;;;5009731;28;20186;-79
2021/04/06 06:57:50;;;;;;;0.00;0.00;;;4.00;99.90;;;;;;5013325;28;20187;-79
2021/04/06 07:00:19;;;;;;;3.13;0.13;;;4.10;99.90;;;;;;5028645;28;20549;-79
2021/04/06 07:02:44;;;;;;;0.03;0.03;;;4.20;99.90;;;;;;5012510;28;20225;-77
2021/04/06 07:05:26;;;;;;;0.00;0.00;;;4.40;99.90;;;;;;4997431;28;20587;-78
2021/04/06 07:08:02;;;;;;;0.13;0.13;;;4.50;99.90;;;;;;5010335;28;20248;-79
2021/04/06 07:10:32;;;;;;;0.10;0.10;;;4.40;99.90;;;;;;4995119;28;20197;-78
2021/04/06 07:13:01;;;;;;;0.17;0.10;;;4.50;99.90;;;;;;5011849;28;20214;-77
2021/04/06 07:15:29;;;;;;;0.10;0.10;;;4.30;99.90;;;;;;4994853;28;20179;-78
2021/04/06 07:18:00;;;;;;;0.10;0.10;;;4.50;99.90;;;;;;4997557;28;20180;-79
2021/04/06 07:20:26;;;;;;;0.10;0.10;;;4.50;99.90;;;;;;4995452;28;20182;-78
2021/04/06 07:22:57;;;;;;;0.10;0.10;;;4.60;99.90;;;;;;4995386;28;20194;-78
2021/04/06 07:25:23;;;;;;;0.47;0.47;;;4.70;99.90;;;;;;4993987;28;20183;-79
2021/04/06 07:27:49;;;;;;;0.10;0.10;;;4.80;99.90;;;;;;4993429;28;20191;-79
2021/04/06 07:30:15;;;;;;;0.10;0.10;;;4.90;99.90;;;;;;4994112;28;20190;-77
2021/04/06 07:32:41;;;;;;;0.00;0.00;;;4.90;99.90;;;;;;4994527;28;20571;-79
2021/04/06 07:35:11;;;;;;;0.27;0.27;;;5.00;99.90;;;;;;4994696;28;20532;-78
2021/04/06 07:37:41;;;;;;;0.10;0.10;;;5.00;99.90;;;;;;4993094;28;20232;-78
2021/04/06 07:40:10;;;;;;;0.30;0.30;;;5.10;99.90;;;;;;5009279;28;20604;-78
2021/04/06 07:42:39;;;;;;;1.37;1.27;;;5.20;99.90;;;;;;5010858;28;20665;-79
2021/04/06 07:45:08;;;;;;;0.30;0.17;;;5.20;99.90;;;;;;4994753;28;20197;-78
2021/04/06 07:47:39;;;;;;;0.07;0.07;;;5.20;99.90;;;;;;5010552;28;20191;-79
2021/04/06 07:50:11;;;;;;;6.23;0.77;;;5.40;99.90;;;;;;4994529;28;20341;-78
2021/04/06 07:52:37;;;;;;;0.10;0.10;;;5.60;99.90;;;;;;5015088;28;20639;-79
2021/04/06 07:55:04;;;;;;;0.10;0.10;;;5.70;99.90;;;;;;4994807;28;20199;-78
2021/04/06 07:57:47;;;;;;;0.13;0.13;;;5.60;99.90;;;;;;5010631;28;20558;-78
2021/04/06 08:00:49;;;;;;;0.00;0.00;;;5.50;99.90;;;;;;4991270;28;20194;-76
2021/04/06 08:03:49;;;;;;;0.03;0.03;;;5.60;99.90;;;;;;5007661;28;20187;-79
2021/04/06 08:06:19;;;;;;;0.10;0.10;;;5.60;99.90;;;;;;5006263;28;20182;-78
2021/04/06 08:08:45;;;;;;;0.30;0.30;;;5.50;99.90;;;;;;4992355;28;20670;-79
2021/04/06 08:11:11;;;;;;;0.50;0.13;;;5.30;99.90;;;;;;4992356;28;20208;-82
2021/04/06 08:13:38;;;;;;;1.30;0.80;;;5.20;99.90;;;;;;5005853;28;20215;-80
2021/04/06 08:16:14;;;;;;;0.10;0.10;;;5.00;99.90;;;;;;5008971;28;20179;-80
2021/04/06 08:18:54;;;;;;;0.10;0.10;;;5.10;99.90;;;;;;4986026;28;20178;-79
2021/04/06 08:21:25;;;;;;;0.10;0.10;;;5.10;99.90;;;;;;5005229;28;20696;-80
2021/04/06 08:23:52;;;;;;;0.00;0.00;;;5.10;99.90;;;;;;4987238;28;20191;-80
2021/04/06 08:26:36;;;;;;;0.00;0.00;;;5.10;99.90;;;;;;5011386;28;20180;-78
2021/04/06 08:29:27;;;;;;;0.10;0.10;;;5.00;99.90;;;;;;5015945;28;20235;-80
2021/04/06 08:32:13;;;;;;;0.03;0.03;;;5.10;99.90;;;;;;5011998;28;20217;-80
2021/04/06 08:34:52;;;;;;;0.30;0.30;;;5.00;99.90;;;;;;4993939;28;20686;-80
2021/04/06 08:37:35;;;;;;;0.10;0.10;;;5.20;99.90;;;;;;5011696;28;20582;-81
2021/04/06 08:40:03;;;;;;;0.10;0.10;;;5.30;99.90;;;;;;4993732;28;20179;-81
2021/04/06 08:42:30;;;;;;;0.00;0.00;;;5.30;99.90;;;;;;4995442;28;20214;-82
2021/04/06 08:44:58;;;;;;;0.43;0.40;;;5.30;99.90;;;;;;5012085;28;20195;-82
2021/04/06 08:47:46;;;;;;;0.43;0.43;;;5.30;99.90;;;;;;4993482;28;20662;-81
2021/04/06 08:50:19;;;;;;;0.10;0.10;;;5.00;99.90;;;;;;4991552;28;20192;-80
2021/04/06 08:52:47;;;;;;;0.00;0.00;;;5.10;99.90;;;;;;5024914;28;20718;-80
2021/04/06 08:55:14;;;;;;;0.10;0.10;;;5.00;99.90;;;;;;5011948;28;20177;-82
2021/04/06 08:57:40;;;;;;;0.00;0.00;;;5.10;99.90;;;;;;5010801;28;20686;-80
2021/04/06 09:00:14;;;;;;;0.10;0.10;;;5.20;99.90;;;;;;4995280;28;20220;-81
2021/04/06 09:02:40;;;;;;;0.00;0.00;;;5.40;99.90;;;;;;4997047;28;21177;-81
2021/04/06 09:05:07;;;;;;;0.40;0.40;;;5.30;99.90;;;;;;4993435;28;21062;-81
2021/04/06 09:07:38;;;;;;;0.37;0.30;;;5.60;99.90;;;;;;5009097;28;20220;-81
2021/04/06 09:10:12;;;;;;;0.00;0.00;;;5.60;99.90;;;;;;4994241;28;20194;-81
2021/04/06 09:12:40;;;;;;;1.50;0.20;;;5.70;99.90;;;;;;5025045;28;20306;-80
2021/04/06 09:15:08;;;;;;;0.13;0.13;;;5.80;99.90;;;;;;5008404;28;20203;-79
2021/04/06 09:17:35;;;;;;;0.10;0.10;;;5.80;99.90;;;;;;4991460;28;20178;-81
2021/04/06 09:20:10;;;;;;;1.70;0.20;;;5.70;99.90;;;;;;5011827;28;20191;-81
2021/04/06 09:22:36;;;;;;;0.10;0.10;;;5.70;99.90;;;;;;5011414;28;20221;-81
2021/04/06 09:25:20;;;;;;;0.10;0.10;;;5.60;99.90;;;;;;4989505;28;20211;-80
2021/04/06 09:28:07;;;;;;;0.10;0.10;;;5.50;99.90;;;;;;5002525;28;20171;-82
2021/04/06 09:30:42;;;;;;;0.10;0.10;;;5.60;99.90;;;;;;4992381;28;20568;-81
2021/04/06 09:33:13;;;;;;;0.30;0.30;;;5.70;99.90;;;;;;4992178;28;20205;-81
2021/04/06 09:35:44;;;;;;;0.00;0.00;;;5.80;99.90;;;;;;4990541;28;20190;-81
2021/04/06 09:38:10;;;;;;;0.63;0.63;;;5.90;99.90;;;;;;5008870;28;20191;-81
2021/04/06 09:40:39;;;;;;;0.10;0.10;;;6.10;99.90;;;;;;5013186;28;20211;-79
2021/04/06 09:43:05;;;;;;;0.33;0.33;;;6.10;99.90;;;;;;4992633;28;20193;-79
2021/04/06 09:45:31;;;;;;;0.00;0.00;;;6.50;99.90;;;;;;4998270;28;20230;-79
2021/04/06 09:47:57;;;;;;;1.77;0.27;;;6.40;99.90;;;;;;4990314;28;20194;-82
2021/04/06 09:50:23;;;;;;;0.17;0.17;;;6.30;99.90;;;;;;4993624;28;20190;-83
2021/04/06 09:52:49;;;;;;;0.00;0.00;;;6.30;99.90;;;;;;4991557;28;20245;-81
2021/04/06 09:55:16;;;;;;;0.00;0.00;;;6.20;99.90;;;;;;5024377;28;20276;-81
2021/04/06 09:57:46;;;;;;;0.10;0.10;;;6.10;99.90;;;;;;5009588;28;20306;-81
2021/04/06 10:00:14;;;;;;;0.10;0.10;;;6.30;99.90;;;;;;4991792;28;20196;-81
2021/04/06 10:02:41;;;;;;;0.10;0.10;;;6.30;99.90;;;;;;4993211;28;20190;-80
2021/04/06 10:05:18;;;;;;;0.17;0.17;;;6.30;99.90;;;;;;4991876;28;20194;-80
2021/04/06 10:07:48;;;;;;;0.00;0.00;;;6.40;99.90;;;;;;5015318;28;20182;-80
2021/04/06 10:10:30;;;;;;;0.10;0.10;;;6.70;99.90;;;;;;5007416;28;20214;-79
2021/04/06 10:12:57;;;;;;;0.00;0.00;;;6.70;99.90;;;;;;4984719;28;20225;-79
2021/04/06 10:15:26;;;;;;;0.00;0.00;;;7.10;99.90;;;;;;4992447;28;20748;-79
2021/04/06 10:17:52;;;;;;;7.10;0.40;;;7.50;99.90;;;;;;4987865;28;20186;-80
2021/04/06 10:20:25;;;;;;;0.20;0.20;;;8.10;99.90;;;;;;4990922;28;20199;-80
2021/04/06 10:22:54;;;;;;;0.00;0.00;;;8.00;99.90;;;;;;4992595;28;20273;-80
2021/04/06 10:25:23;;;;;;;0.17;0.17;;;8.00;99.90;;;;;;4993243;28;20733;-79
2021/04/06 10:28:00;;;;;;;0.00;0.00;;;7.70;99.90;;;;;;4995871;28;20256;-78
2021/04/06 10:30:46;;;;;;;0.33;0.23;;;7.20;99.90;;;;;;5008880;28;20187;-79
2021/04/06 10:33:16;;;;;;;0.00;0.00;;;6.90;99.90;;;;;;4993446;28;20253;-80
2021/04/06 10:35:54;;;;;;;0.07;0.07;;;6.80;99.90;;;;;;4993047;28;20256;-79
2021/04/06 10:38:23;;;;;;;0.00;0.00;;;6.80;99.90;;;;;;5005036;28;20277;-80
2021/04/06 10:41:18;;;;;;;0.07;0.07;;;6.60;99.90;;;;;;5025169;28;20212;-80
2021/04/06 10:43:52;;;;;;;0.20;0.20;;;6.80;99.90;;;;;;4990627;28;20187;-77
2021/04/06 10:46:22;;;;;;;0.00;0.00;;;6.60;99.90;;;;;;5020381;28;20267;-79
2021/04/06 10:48:50;;;;;;;0.10;0.10;;;6.40;99.90;;;;;;5009221;28;20202;-79
2021/04/06 10:51:25;;;;;;;0.13;0.13;;;6.20;99.90;;;;;;5008390;28;20213;-80
2021/04/06 10:53:56;;;;;;;0.40;0.40;;;6.10;99.90;;;;;;5014506;28;20185;-80
2021/04/06 10:56:28;;;;;;;0.00;0.00;;;6.00;99.90;;;;;;5008252;28;20211;-80
2021/04/06 10:59:04;;;;;;;5.77;0.30;;;6.00;99.90;;;;;;5013047;28;20173;-79
2021/04/06 11:01:45;;;;;;;0.17;0.17;;;6.40;99.90;;;;;;4994308;28;20198;-79
2021/04/06 11:04:18;;;;;;;0.10;0.10;;;6.80;99.90;;;;;;4999864;28;20278;-80
2021/04/06 11:07:00;;;;;;;0.10;0.10;;;7.20;99.90;;;;;;4993142;28;20178;-80
2021/04/06 11:09:47;;;;;;;0.43;0.20;;;7.60;99.90;;;;;;4991611;28;20186;-79
2021/04/06 11:12:16;;;;;;;0.10;0.10;;;8.00;99.90;;;;;;4990105;28;20346;-80
2021/04/06 11:14:44;;;;;;;0.40;0.40;;;8.10;99.90;;;;;;5014144;28;20237;-82
2021/04/06 11:17:11;;;;;;;0.00;0.00;;;8.30;99.90;;;;;;4991488;28;20183;-79
2021/04/06 11:19:45;;;;;;;0.07;0.07;;;8.40;99.90;;;;;;4995935;28;20187;-80
2021/04/06 11:22:17;;;;;;;0.07;0.07;;;8.50;99.90;;;;;;5009816;28;20214;-82
2021/04/06 11:24:45;;;;;;;0.00;0.00;;;8.30;99.90;;;;;;5010683;28;20237;-82
2021/04/06 11:27:13;;;;;;;0.70;0.50;;;8.10;99.90;;;;;;4992628;28;20739;-81
2021/04/06 11:29:40;;;;;;;0.20;0.20;;;7.50;99.90;;;;;;5014914;28;20209;-81
2021/04/06 11:32:08;;;;;;;0.00;0.00;;;7.30;99.90;;;;;;4997470;28;20211;-80
2021/04/06 11:34:35;;;;;;;0.23;0.23;;;7.00;99.90;;;;;;4997623;28;20593;-80
2021/04/06 11:37:01;;;;;;;0.10;0.10;;;6.90;99.90;;;;;;4996941;28;20183;-81
2021/04/06 11:39:29;;;;;;;0.00;0.00;;;6.70;99.90;;;;;;4996509;28;20187;-81
2021/04/06 11:41:56;;;;;;;0.00;0.00;;;6.50;99.90;;;;;;5013991;28;20206;-81
2021/04/06 11:44:21;;;;;;;0.00;0.00;;;6.10;99.90;;;;;;4997277;28;20194;-79
2021/04/06 11:46:48;;;;;;;0.00;0.00;;;6.50;99.90;;;;;;4997010;28;20567;-80
2021/04/06 11:49:15;;;;;;;0.00;0.00;;;6.90;99.90;;;;;;5014103;28;20253;-81
2021/04/06 11:51:43;;;;;;;0.00;0.00;;;7.40;99.90;;;;;;4995952;28;20288;-81
2021/04/06 11:54:11;;;;;;;0.00;0.00;;;7.40;99.90;;;;;;4998314;28;20183;-80
2021/04/06 11:56:36;;;;;;;0.00;0.00;;;7.50;99.90;;;;;;4997565;28;20191;-80
2021/04/06 11:59:03;;;;;;;0.40;0.30;;;7.10;99.90;;;;;;4996083;28;20182;-79
2021/04/06 12:01:30;;;;;;;0.07;0.07;;;7.20;99.90;;;;;;5000423;28;20223;-79
2021/04/06 12:03:56;;;;;;;0.10;0.10;;;7.20;99.90;;;;;;4999646;28;20241;-81
2021/04/06 12:06:22;;;;;;;0.00;0.00;;;7.00;99.90;;;;;;5017762;28;20182;-81
2021/04/06 12:08:48;;;;;;;0.00;0.00;;;7.10;99.90;;;;;;5000038;28;20282;-80
2021/04/06 12:11:13;;;;;;;0.20;0.20;;;7.30;99.90;;;;;;5018874;28;20223;-80
2021/04/06 12:13:39;;;;;;;0.03;0.03;;;7.70;99.90;;;;;;5001042;28;20269;-80
2021/04/06 12:16:05;;;;;;;0.00;0.00;;;7.70;99.90;;;;;;5018518;28;20685;-80
2021/04/06 12:18:31;;;;;;;0.10;0.10;;;7.80;99.90;;;;;;4999731;28;20612;-80
2021/04/06 12:20:57;;;;;;;0.00;0.00;;;8.20;99.90;;;;;;5000433;28;20217;-79
2021/04/06 12:23:23;;;;;;;0.00;0.00;;;8.30;99.90;;;;;;5000445;28;20579;-79
2021/04/06 12:25:48;;;;;;;0.40;0.20;;;8.30;99.90;;;;;;5003673;28;20227;-80
2021/04/06 12:28:14;;;;;;;0.00;0.00;;;8.50;99.90;;;;;;5017404;28;20567;-81
2021/04/06 12:30:40;;;;;;;0.10;0.10;;;8.10;99.90;;;;;;5018020;28;20238;-80
2021/04/06 12:33:05;;;;;;;0.00;0.00;;;7.80;99.90;;;;;;4996644;28;20207;-79
2021/04/06 12:35:31;;;;;;;0.87;0.77;;;7.50;99.90;;;;;;5017807;28;20171;-80
2021/04/06 12:37:57;;;;;;;0.10;0.10;;;7.80;99.90;;;;;;4998833;28;20190;-78
2021/04/06 12:40:23;;;;;;;0.10;0.10;;;8.10;99.90;;;;;;4999018;28;20538;-80
2021/04/06 12:42:49;;;;;;;0.20;0.20;;;8.20;99.90;;;;;;5000784;28;20236;-79
2021/04/06 12:45:17;;;;;;;2.00;1.90;;;8.60;99.90;;;;;;4998301;28;20195;-79
2021/04/06 12:47:43;;;;;;;0.10;0.10;;;8.90;99.90;;;;;;4998362;28;20197;-80
2021/04/06 12:50:10;;;;;;;0.00;0.00;;;9.30;99.90;;;;;;4998964;28;20199;-80
2021/04/06 12:52:35;;;;;;;0.03;0.03;;;9.70;99.90;;;;;;5017238;28;20243;-80
2021/04/06 12:55:02;;;;;;;0.10;0.10;;;9.90;99.90;;;;;;5017064;28;20179;-81
2021/04/06 12:57:28;;;;;;;0.00;0.00;;;10.00;99.90;;;;;;5016735;28;20263;-81
2021/04/06 12:59:57;;;;;;;0.00;0.00;;;9.50;99.90;;;;;;4998713;28;20207;-81
2021/04/06 13:02:24;;;;;;;0.00;0.00;;;9.80;99.90;;;;;;5001018;28;20202;-81
2021/04/06 13:04:50;;;;;;;0.10;0.10;;;10.00;99.90;;;;;;4998260;28;20214;-81
2021/04/06 13:07:16;;;;;;;0.00;0.00;;;9.60;99.90;;;;;;5012321;28;20198;-80
2021/04/06 13:09:41;;;;;;;0.20;0.20;;;9.20;99.90;;;;;;4995446;28;20192;-79
2021/04/06 13:12:07;;;;;;;0.10;0.10;;;9.10;99.90;;;;;;5009276;28;20212;-78